sensor_id;sensor_type;location;lat;lon;timestamp;pressure;altitude;pressure_sealevel;temperature;humidity
63351;BME280;64988;51.058;17.040;2023-02-08T00:04:39;102817.66;;;0.70;57.95
63351;BME280;64988;51.058;17.040;2023-02-08T00:10:06;102822.13;;;0.77;57.79
63351;BME280;64988;51.058;17.040;2023-02-08T00:15:34;102815.03;;;0.77;57.50
63351;BME280;64988;51.058;17.040;2023-02-08T00:21:15;102825.66;;;0.80;58.47
63351;BME280;64988;51.058;17.040;2023-02-08T00:26:43;102829.19;;;0.88;57.59
63351;BME280;64988;51.058;17.040;2023-02-08T00:32:11;102838.06;;;0.87;58.11
63351;BME280;64988;51.058;17.040;2023-02-08T00:37:38;102843.38;;;0.78;58.12
63351;BME280;64988;51.058;17.040;2023-02-08T00:43:05;102845.97;;;0.62;59.23
63351;BME280;64988;51.058;17.040;2023-02-08T00:48:34;102846.03;;;0.74;59.18
63351;BME280;64988;51.058;17.040;2023-02-08T00:54:01;102841.56;;;0.68;59.34
63351;BME280;64988;51.058;17.040;2023-02-08T00:59:29;102835.41;;;0.77;59.42
63351;BME280;64988;51.058;17.040;2023-02-08T01:04:56;102829.19;;;0.79;59.50
63351;BME280;64988;51.058;17.040;2023-02-08T01:10:23;102833.63;;;0.76;59.96
63351;BME280;64988;51.058;17.040;2023-02-08T01:15:50;102832.69;;;0.57;57.45
63351;BME280;64988;51.058;17.040;2023-02-08T01:21:21;102820.28;;;0.62;57.52
63351;BME280;64988;51.058;17.040;2023-02-08T01:26:49;102830.91;;;0.59;56.77
63351;BME280;64988;51.058;17.040;2023-02-08T01:32:16;102819.44;;;0.75;57.60
63351;BME280;64988;51.058;17.040;2023-02-08T01:37:44;102821.19;;;0.75;57.36
63351;BME280;64988;51.058;17.040;2023-02-08T01:43:26;102810.59;;;0.76;57.74
63351;BME280;64988;51.058;17.040;2023-02-08T01:48:57;102808.81;;;0.86;58.13
63351;BME280;64988;51.058;17.040;2023-02-08T01:54:34;102817.63;;;0.65;57.33
63351;BME280;64988;51.058;17.040;2023-02-08T02:00:15;102815.91;;;0.79;57.05
63351;BME280;64988;51.058;17.040;2023-02-08T02:05:47;102805.28;;;0.73;56.01
63351;BME280;64988;51.058;17.040;2023-02-08T02:11:16;102807.00;;;0.68;55.79
63351;BME280;64988;51.058;17.040;2023-02-08T02:16:44;102797.28;;;0.70;56.12
63351;BME280;64988;51.058;17.040;2023-02-08T02:39:47;102799.94;;;0.67;58.07
63351;BME280;64988;51.058;17.040;2023-02-08T02:50:51;102806.13;;;0.54;58.39
63351;BME280;64988;51.058;17.040;2023-02-08T02:56:25;102795.50;;;0.54;58.76
63351;BME280;64988;51.058;17.040;2023-02-08T03:01:54;102796.31;;;0.36;57.21
63351;BME280;64988;51.058;17.040;2023-02-08T03:07:56;102796.34;;;0.41;55.82
63351;BME280;64988;51.058;17.040;2023-02-08T03:25:33;102800.72;;;0.24;56.93
63351;BME280;64988;51.058;17.040;2023-02-08T03:31:28;102800.66;;;0.13;57.44
63351;BME280;64988;51.058;17.040;2023-02-08T03:37:02;102809.47;;;0.02;57.28
63351;BME280;64988;51.058;17.040;2023-02-08T03:42:32;102816.59;;;0.06;57.77
63351;BME280;64988;51.058;17.040;2023-02-08T03:48:03;102823.63;;;0.07;58.83
63351;BME280;64988;51.058;17.040;2023-02-08T03:53:33;102829.94;;;0.28;59.24
63351;BME280;64988;51.058;17.040;2023-02-08T03:59:09;102817.59;;;0.41;59.18
63351;BME280;64988;51.058;17.040;2023-02-08T04:04:43;102822.06;;;0.54;58.52
63351;BME280;64988;51.058;17.040;2023-02-08T04:10:12;102825.59;;;0.62;58.60
63351;BME280;64988;51.058;17.040;2023-02-08T04:15:39;102827.41;;;0.66;57.28
63351;BME280;64988;51.058;17.040;2023-02-08T04:21:06;102826.53;;;0.70;57.48
63351;BME280;64988;51.058;17.040;2023-02-08T04:26:34;102825.59;;;0.56;57.99
63351;BME280;64988;51.058;17.040;2023-02-08T04:32:02;102832.72;;;0.66;57.82
63351;BME280;64988;51.058;17.040;2023-02-08T04:37:31;102825.63;;;0.73;57.80
63351;BME280;64988;51.058;17.040;2023-02-08T04:42:58;102825.66;;;0.77;57.49
63351;BME280;64988;51.058;17.040;2023-02-08T04:48:26;102827.41;;;0.84;58.54
63351;BME280;64988;51.058;17.040;2023-02-08T04:53:53;102823.88;;;0.88;58.25
63351;BME280;64988;51.058;17.040;2023-02-08T04:59:21;102826.56;;;0.93;58.25
63351;BME280;64988;51.058;17.040;2023-02-08T05:04:49;102818.59;;;0.96;58.04
63351;BME280;64988;51.058;17.040;2023-02-08T05:10:17;102809.72;;;0.89;58.00
63351;BME280;64988;51.058;17.040;2023-02-08T05:15:45;102800.78;;;0.59;57.10
63351;BME280;64988;51.058;17.040;2023-02-08T05:21:12;102805.94;;;0.03;57.93
63351;BME280;64988;51.058;17.040;2023-02-08T05:26:40;102803.88;;;-0.53;59.61
63351;BME280;64988;51.058;17.040;2023-02-08T05:32:08;102818.59;;;-0.91;62.30
63351;BME280;64988;51.058;17.040;2023-02-08T05:37:36;102826.34;;;-1.14;63.16
63351;BME280;64988;51.058;17.040;2023-02-08T05:43:03;102828.94;;;-1.20;65.29
63351;BME280;64988;51.058;17.040;2023-02-08T05:48:30;102837.69;;;-1.30;64.34
63351;BME280;64988;51.058;17.040;2023-02-08T05:53:57;102842.72;;;-1.53;65.75
63351;BME280;64988;51.058;17.040;2023-02-08T05:59:25;102835.56;;;-1.62;66.22
63351;BME280;64988;51.058;17.040;2023-02-08T06:04:53;102837.28;;;-1.65;66.48
63351;BME280;64988;51.058;17.040;2023-02-08T06:10:20;102847.84;;;-1.68;66.37
63351;BME280;64988;51.058;17.040;2023-02-08T06:15:47;102841.59;;;-1.73;66.21
63351;BME280;64988;51.058;17.040;2023-02-08T06:21:14;102843.22;;;-1.86;66.75
63351;BME280;64988;51.058;17.040;2023-02-08T06:26:42;102843.16;;;-1.89;66.68
63351;BME280;64988;51.058;17.040;2023-02-08T06:32:09;102839.59;;;-1.92;66.81
63351;BME280;64988;51.058;17.040;2023-02-08T06:37:37;102844.97;;;-1.88;67.04
63351;BME280;64988;51.058;17.040;2023-02-08T06:43:04;102847.72;;;-1.79;67.30
63351;BME280;64988;51.058;17.040;2023-02-08T06:48:32;102848.00;;;-1.56;67.34
63351;BME280;64988;51.058;17.040;2023-02-08T06:53:59;102868.50;;;-1.35;65.96
63351;BME280;64988;51.058;17.040;2023-02-08T06:59:27;102867.94;;;-1.07;66.05
63351;BME280;64988;51.058;17.040;2023-02-08T07:04:54;102864.69;;;-0.76;64.43
63351;BME280;64988;51.058;17.040;2023-02-08T07:10:21;102872.78;;;-0.59;63.96
63351;BME280;64988;51.058;17.040;2023-02-08T07:15:49;102891.63;;;-0.23;62.93
63351;BME280;64988;51.058;17.040;2023-02-08T07:21:16;102895.22;;;-0.12;64.16
63351;BME280;64988;51.058;17.040;2023-02-08T07:26:43;102900.78;;;0.34;62.09
63351;BME280;64988;51.058;17.040;2023-02-08T07:32:11;102900.06;;;0.74;60.53
63351;BME280;64988;51.058;17.040;2023-02-08T07:37:40;102905.34;;;0.71;60.96
63351;BME280;64988;51.058;17.040;2023-02-08T07:43:08;102916.06;;;0.83;60.40
63351;BME280;64988;51.058;17.040;2023-02-08T07:48:44;102917.88;;;1.24;59.70
63351;BME280;64988;51.058;17.040;2023-02-08T07:54:12;102937.44;;;1.44;58.45
63351;BME280;64988;51.058;17.040;2023-02-08T07:59:39;102933.88;;;1.72;58.01
63351;BME280;64988;51.058;17.040;2023-02-08T08:05:07;102932.06;;;2.04;57.00
63351;BME280;64988;51.058;17.040;2023-02-08T08:10:35;102923.97;;;2.47;56.31
63351;BME280;64988;51.058;17.040;2023-02-08T08:16:03;102931.88;;;2.70;55.42
63351;BME280;64988;51.058;17.040;2023-02-08T08:21:31;102923.88;;;2.71;54.96
63351;BME280;64988;51.058;17.040;2023-02-08T08:26:58;102919.22;;;3.09;54.78
63351;BME280;64988;51.058;17.040;2023-02-08T08:32:25;102925.28;;;3.30;53.99
63351;BME280;64988;51.058;17.040;2023-02-08T08:37:53;102912.72;;;3.44;54.23
63351;BME280;64988;51.058;17.040;2023-02-08T08:43:21;102914.28;;;3.69;53.49
63351;BME280;64988;51.058;17.040;2023-02-08T08:48:49;102915.28;;;3.56;53.55
63351;BME280;64988;51.058;17.040;2023-02-08T08:54:18;102916.31;;;3.41;54.20
63351;BME280;64988;51.058;17.040;2023-02-08T08:59:45;102909.84;;;3.71;53.79
63351;BME280;64988;51.058;17.040;2023-02-08T09:05:13;102920.38;;;3.88;53.96
63351;BME280;64988;51.058;17.040;2023-02-08T09:10:40;102925.88;;;3.66;53.75
63351;BME280;64988;51.058;17.040;2023-02-08T09:16:12;102923.22;;;3.68;53.90
63351;BME280;64988;51.058;17.040;2023-02-08T09:21:40;102914.06;;;3.93;53.74
63351;BME280;64988;51.058;17.040;2023-02-08T09:27:08;102931.72;;;4.09;52.72
63351;BME280;64988;51.058;17.040;2023-02-08T09:32:35;102922.00;;;4.02;52.33
63351;BME280;64988;51.058;17.040;2023-02-08T09:38:05;102932.72;;;3.98;52.65
63351;BME280;64988;51.058;17.040;2023-02-08T09:43:59;102932.66;;;4.05;52.69
63351;BME280;64988;51.058;17.040;2023-02-08T09:49:39;102931.69;;;4.12;52.84
63351;BME280;64988;51.058;17.040;2023-02-08T10:00:46;102921.25;;;3.85;54.30
63351;BME280;64988;51.058;17.040;2023-02-08T10:06:18;102908.59;;;4.07;53.82
63351;BME280;64988;51.058;17.040;2023-02-08T10:12:13;102927.59;;;3.77;53.19
63351;BME280;64988;51.058;17.040;2023-02-08T10:23:49;102901.13;;;3.48;55.04
63351;BME280;64988;51.058;17.040;2023-02-08T10:29:33;102908.06;;;3.70;54.41
63351;BME280;64988;51.058;17.040;2023-02-08T10:35:12;102902.69;;;3.75;55.34
63351;BME280;64988;51.058;17.040;2023-02-08T10:40:39;102893.50;;;4.03;54.29
63351;BME280;64988;51.058;17.040;2023-02-08T10:46:24;102896.13;;;4.04;53.87
63351;BME280;64988;51.058;17.040;2023-02-08T10:51:55;102886.69;;;4.51;53.61
63351;BME280;64988;51.058;17.040;2023-02-08T10:57:26;102885.75;;;4.55;52.48
63351;BME280;64988;51.058;17.040;2023-02-08T11:02:56;102891.97;;;4.57;52.71
63351;BME280;64988;51.058;17.040;2023-02-08T11:08:26;102885.88;;;4.44;53.73
63351;BME280;64988;51.058;17.040;2023-02-08T11:14:07;102876.00;;;4.52;53.13
63351;BME280;64988;51.058;17.040;2023-02-08T11:19:38;102864.41;;;5.13;52.13
63351;BME280;64988;51.058;17.040;2023-02-08T11:25:37;102854.50;;;5.19;51.99
63351;BME280;64988;51.058;17.040;2023-02-08T11:31:15;102845.81;;;5.02;52.13
63351;BME280;64988;51.058;17.040;2023-02-08T11:36:46;102842.34;;;5.51;51.55
63351;BME280;64988;51.058;17.040;2023-02-08T11:42:29;102854.19;;;5.38;52.05
63351;BME280;64988;51.058;17.040;2023-02-08T11:47:58;102843.53;;;4.78;52.61
63351;BME280;64988;51.058;17.040;2023-02-08T11:53:46;102830.09;;;4.81;53.79
63351;BME280;64988;51.058;17.040;2023-02-08T12:04:41;102841.66;;;4.85;54.08
63351;BME280;64988;51.058;17.040;2023-02-08T12:39:24;102819.75;;;4.58;53.45
63351;BME280;64988;51.058;17.040;2023-02-08T12:57:17;102809.00;;;4.61;52.00
63351;BME280;64988;51.058;17.040;2023-02-08T13:14:25;102795.38;;;4.75;51.78
63351;BME280;64988;51.058;17.040;2023-02-08T13:25:30;102783.44;;;5.00;50.25
63351;BME280;64988;51.058;17.040;2023-02-08T13:31:01;102799.59;;;4.32;52.12
63351;BME280;64988;51.058;17.040;2023-02-08T13:36:32;102788.09;;;4.23;52.96
63351;BME280;64988;51.058;17.040;2023-02-08T13:42:03;102778.63;;;3.98;53.35
63351;BME280;64988;51.058;17.040;2023-02-08T13:47:42;102780.03;;;3.55;53.96
63351;BME280;64988;51.058;17.040;2023-02-08T13:53:12;102780.00;;;3.58;54.18
63351;BME280;64988;51.058;17.040;2023-02-08T13:59:22;102785.34;;;3.58;54.82
63351;BME280;64988;51.058;17.040;2023-02-08T14:17:22;102769.91;;;4.51;50.63
63351;BME280;64988;51.058;17.040;2023-02-08T14:23:03;102764.94;;;4.26;51.78
63351;BME280;64988;51.058;17.040;2023-02-08T14:28:34;102761.75;;;3.95;53.00
63351;BME280;64988;51.058;17.040;2023-02-08T14:34:19;102754.25;;;3.51;53.65
63351;BME280;64988;51.058;17.040;2023-02-08T14:39:48;102747.28;;;3.36;54.71
63351;BME280;64988;51.058;17.040;2023-02-08T14:57:04;102738.09;;;2.73;56.66
63351;BME280;64988;51.058;17.040;2023-02-08T15:02:40;102742.66;;;2.56;57.77
63351;BME280;64988;51.058;17.040;2023-02-08T15:08:09;102740.97;;;2.41;58.79
63351;BME280;64988;51.058;17.040;2023-02-08T15:13:39;102748.16;;;2.32;59.63
63351;BME280;64988;51.058;17.040;2023-02-08T15:19:08;102754.41;;;2.25;59.64
63351;BME280;64988;51.058;17.040;2023-02-08T15:24:53;102752.72;;;2.04;60.94
63351;BME280;64988;51.058;17.040;2023-02-08T15:30:36;102751.06;;;1.76;61.31
63351;BME280;64988;51.058;17.040;2023-02-08T15:36:07;102747.56;;;1.63;61.98
63351;BME280;64988;51.058;17.040;2023-02-08T15:41:35;102753.84;;;1.41;62.77
63351;BME280;64988;51.058;17.040;2023-02-08T15:47:12;102760.09;;;1.16;63.14
63351;BME280;64988;51.058;17.040;2023-02-08T15:52:45;102755.66;;;0.92;64.08
63351;BME280;64988;51.058;17.040;2023-02-08T15:58:29;102755.66;;;0.75;64.43
63351;BME280;64988;51.058;17.040;2023-02-08T16:03:59;102756.53;;;0.55;65.58
63351;BME280;64988;51.058;17.040;2023-02-08T16:09:32;102742.31;;;0.39;66.73
63351;BME280;64988;51.058;17.040;2023-02-08T16:15:01;102752.03;;;0.28;67.46
63351;BME280;64988;51.058;17.040;2023-02-08T16:20:31;102742.28;;;0.21;68.11
63351;BME280;64988;51.058;17.040;2023-02-08T16:26:31;102746.69;;;0.13;67.64
63351;BME280;64988;51.058;17.040;2023-02-08T16:32:05;102739.56;;;-0.02;68.60
63351;BME280;64988;51.058;17.040;2023-02-08T16:37:38;102740.38;;;-0.15;69.56
63351;BME280;64988;51.058;17.040;2023-02-08T16:43:31;102733.28;;;-0.27;69.83
63351;BME280;64988;51.058;17.040;2023-02-08T16:48:58;102733.19;;;-0.43;69.95
63351;BME280;64988;51.058;17.040;2023-02-08T16:54:26;102736.69;;;-0.49;70.48
63351;BME280;64988;51.058;17.040;2023-02-08T16:59:54;102746.41;;;-0.51;71.16
63351;BME280;64988;51.058;17.040;2023-02-08T17:05:26;102740.16;;;-0.58;70.88
63351;BME280;64988;51.058;17.040;2023-02-08T17:10:54;102730.31;;;-0.80;70.98
63351;BME280;64988;51.058;17.040;2023-02-08T17:16:27;102727.66;;;-0.81;72.42
63351;BME280;64988;51.058;17.040;2023-02-08T17:21:55;102724.13;;;-0.82;72.14
63351;BME280;64988;51.058;17.040;2023-02-08T17:27:23;102732.03;;;-0.88;72.26
63351;BME280;64988;51.058;17.040;2023-02-08T17:32:52;102738.19;;;-0.92;71.93
63351;BME280;64988;51.058;17.040;2023-02-08T17:38:22;102734.56;;;-1.03;71.46
63351;BME280;64988;51.058;17.040;2023-02-08T17:43:55;102729.16;;;-1.20;72.38
63351;BME280;64988;51.058;17.040;2023-02-08T17:49:22;102733.47;;;-1.31;72.24
63351;BME280;64988;51.058;17.040;2023-02-08T17:54:50;102729.84;;;-1.40;73.42
63351;BME280;64988;51.058;17.040;2023-02-08T18:00:20;102733.31;;;-1.47;73.37
63351;BME280;64988;51.058;17.040;2023-02-08T18:05:54;102721.00;;;-1.44;72.03
63351;BME280;64988;51.058;17.040;2023-02-08T18:11:24;102724.22;;;-1.74;71.49
63351;BME280;64988;51.058;17.040;2023-02-08T18:16:51;102716.25;;;-1.77;73.47
63351;BME280;64988;51.058;17.040;2023-02-08T18:22:19;102719.72;;;-1.85;72.74
63351;BME280;64988;51.058;17.040;2023-02-08T18:27:48;102708.44;;;-1.65;74.19
63351;BME280;64988;51.058;17.040;2023-02-08T18:33:16;102706.66;;;-1.64;73.69
63351;BME280;64988;51.058;17.040;2023-02-08T18:38:46;102703.13;;;-1.65;73.73
63351;BME280;64988;51.058;17.040;2023-02-08T18:44:15;102696.78;;;-1.85;74.27
63351;BME280;64988;51.058;17.040;2023-02-08T18:49:42;102684.56;;;-1.72;74.04
63351;BME280;64988;51.058;17.040;2023-02-08T18:55:10;102686.53;;;-1.47;74.67
63351;BME280;64988;51.058;17.040;2023-02-08T19:00:37;102673.38;;;-1.38;73.82
63351;BME280;64988;51.058;17.040;2023-02-08T19:06:10;102668.13;;;-1.30;73.26
63351;BME280;64988;51.058;17.040;2023-02-08T19:11:38;102658.44;;;-1.27;72.96
63351;BME280;64988;51.058;17.040;2023-02-08T19:17:06;102667.25;;;-1.28;72.86
63351;BME280;64988;51.058;17.040;2023-02-08T19:22:33;102656.72;;;-1.23;72.38
63351;BME280;64988;51.058;17.040;2023-02-08T19:28:00;102666.44;;;-1.21;72.42
63351;BME280;64988;51.058;17.040;2023-02-08T19:33:29;102665.56;;;-1.20;72.14
63351;BME280;64988;51.058;17.040;2023-02-08T19:38:59;102670.00;;;-1.17;71.63
63351;BME280;64988;51.058;17.040;2023-02-08T19:44:29;102669.09;;;-1.21;71.09
63351;BME280;64988;51.058;17.040;2023-02-08T19:49:56;102672.56;;;-1.28;71.48
63351;BME280;64988;51.058;17.040;2023-02-08T19:55:24;102669.81;;;-1.43;71.33
63351;BME280;64988;51.058;17.040;2023-02-08T20:00:51;102675.06;;;-1.44;71.85
63351;BME280;64988;51.058;17.040;2023-02-08T20:06:28;102663.53;;;-1.51;71.49
63351;BME280;64988;51.058;17.040;2023-02-08T20:11:56;102657.28;;;-1.62;70.95
63351;BME280;64988;51.058;17.040;2023-02-08T20:17:24;102662.34;;;-1.86;70.81
63351;BME280;64988;51.058;17.040;2023-02-08T20:22:51;102657.75;;;-2.07;72.55
63351;BME280;64988;51.058;17.040;2023-02-08T20:28:19;102656.75;;;-2.15;72.37
63351;BME280;64988;51.058;17.040;2023-02-08T20:33:49;102655.72;;;-2.29;72.91
63351;BME280;64988;51.058;17.040;2023-02-08T20:39:18;102654.72;;;-2.39;72.78
63351;BME280;64988;51.058;17.040;2023-02-08T20:44:47;102649.31;;;-2.49;73.59
63351;BME280;64988;51.058;17.040;2023-02-08T20:50:14;102643.22;;;-2.44;74.48
63351;BME280;64988;51.058;17.040;2023-02-08T20:55:46;102643.19;;;-2.47;73.62
63351;BME280;64988;51.058;17.040;2023-02-08T21:01:19;102638.66;;;-2.57;73.86
63351;BME280;64988;51.058;17.040;2023-02-08T21:06:47;102631.53;;;-2.62;74.04
63351;BME280;64988;51.058;17.040;2023-02-08T21:12:15;102630.56;;;-2.68;73.63
63351;BME280;64988;51.058;17.040;2023-02-08T21:17:43;102633.88;;;-2.85;73.61
63351;BME280;64988;51.058;17.040;2023-02-08T21:23:11;102637.31;;;-2.92;75.13
63351;BME280;64988;51.058;17.040;2023-02-08T21:28:39;102622.44;;;-2.84;75.40
63351;BME280;64988;51.058;17.040;2023-02-08T21:34:07;102617.28;;;-2.74;74.57
63351;BME280;64988;51.058;17.040;2023-02-08T21:39:34;102603.94;;;-2.86;74.26
63351;BME280;64988;51.058;17.040;2023-02-08T21:45:02;102595.06;;;-2.91;74.70
63351;BME280;64988;51.058;17.040;2023-02-08T21:50:30;102605.56;;;-2.94;74.69
63351;BME280;64988;51.058;17.040;2023-02-08T21:56:16;102614.31;;;-2.99;74.66
63351;BME280;64988;51.058;17.040;2023-02-08T22:01:43;102604.47;;;-3.11;74.31
63351;BME280;64988;51.058;17.040;2023-02-08T22:07:11;102603.38;;;-3.27;74.01
63351;BME280;64988;51.058;17.040;2023-02-08T22:12:39;102587.34;;;-3.40;73.91
63351;BME280;64988;51.058;17.040;2023-02-08T22:18:08;102583.59;;;-3.54;74.92
63351;BME280;64988;51.058;17.040;2023-02-08T22:23:36;102588.03;;;-3.53;74.70
63351;BME280;64988;51.058;17.040;2023-02-08T22:29:04;102588.06;;;-3.49;74.84
63351;BME280;64988;51.058;17.040;2023-02-08T22:34:31;102571.28;;;-3.54;74.74
63351;BME280;64988;51.058;17.040;2023-02-08T22:39:59;102574.66;;;-3.64;74.44
63351;BME280;64988;51.058;17.040;2023-02-08T22:45:26;102572.94;;;-3.62;74.78
63351;BME280;64988;51.058;17.040;2023-02-08T22:50:53;102573.56;;;-3.78;73.49
63351;BME280;64988;51.058;17.040;2023-02-08T22:56:21;102576.06;;;-3.84;74.31
63351;BME280;64988;51.058;17.040;2023-02-08T23:01:49;102552.47;;;-3.78;75.60
63351;BME280;64988;51.058;17.040;2023-02-08T23:07:16;102535.88;;;-3.68;74.91
63351;BME280;64988;51.058;17.040;2023-02-08T23:12:44;102533.09;;;-3.77;74.24
63351;BME280;64988;51.058;17.040;2023-02-08T23:18:11;102535.59;;;-3.86;74.34
63351;BME280;64988;51.058;17.040;2023-02-08T23:23:39;102543.38;;;-3.94;75.01
63351;BME280;64988;51.058;17.040;2023-02-08T23:29:06;102531.16;;;-3.90;75.50
63351;BME280;64988;51.058;17.040;2023-02-08T23:34:34;102512.78;;;-3.84;74.83
63351;BME280;64988;51.058;17.040;2023-02-08T23:40:04;102518.84;;;-3.90;75.23
63351;BME280;64988;51.058;17.040;2023-02-08T23:45:32;102510.00;;;-3.95;74.65
63351;BME280;64988;51.058;17.040;2023-02-08T23:51:01;102505.69;;;-3.88;75.34
63351;BME280;64988;51.058;17.040;2023-02-08T23:56:30;102503.09;;;-3.85;74.63
